Time;durP1;ratioP1;P1;durP2;ratioP2;P2;SDS_P1;SDS_P2;PMS_P1;PMS_P2;Temp;Humidity;BMP_temperature;BMP_pressure;BME280_temperature;BME280_humidity;BME280_pressure;Samples;Min_cycle;Max_cycle;Signal;HPM_P1;HPM_P2
2022/10/30 00:00:56;;;;;;;7.93;6.67;;;;;;;-142.65;83.20;50172.78;5115887;28;20196;-70
2022/10/30 00:03:22;;;;;;;9.10;6.00;;;;;;;-142.65;82.97;50170.78;5115613;28;20205;-70
2022/10/30 00:05:50;;;;;;;5.97;5.53;;;;;;;-142.65;83.06;50172.78;5115630;28;20225;-70
2022/10/30 00:08:19;;;;;;;7.10;6.50;;;;;;;;;;5115275;28;20185;-70
2022/10/30 00:10:46;;;;;;;7.57;6.63;;;;;;;-142.65;83.27;50178.75;5114836;28;20199;-70
2022/10/30 00:13:13;;;;;;;9.03;6.07;;;;;;;-142.65;83.84;50174.75;5115308;28;20680;-70
2022/10/30 00:15:44;;;;;;;9.37;6.00;;;;;;;-142.65;83.80;50170.78;5115936;28;20182;-70
2022/10/30 00:18:11;;;;;;;14.40;6.47;;;;;;;-142.65;83.69;50174.75;5115655;28;20177;-70
2022/10/30 00:20:37;;;;;;;12.90;6.03;;;;;;;-142.65;83.50;50172.78;5115305;28;20193;-70
2022/10/30 00:23:04;;;;;;;8.23;6.77;;;;;;;-142.65;83.57;50178.75;5115421;28;20568;-70
2022/10/30 00:25:31;;;;;;;7.97;7.23;;;;;;;-142.65;83.58;50170.78;5115786;28;20189;-69
2022/10/30 00:27:57;;;;;;;6.90;6.30;;;;;;;-142.65;83.73;50174.75;5115456;28;20181;-70
2022/10/30 00:30:23;;;;;;;8.30;5.47;;;;;;;-142.65;83.77;50174.75;5115428;28;20252;-70
2022/10/30 00:32:50;;;;;;;8.13;5.73;;;;;;;-142.65;83.84;50172.78;5115576;28;20208;-70
2022/10/30 00:35:16;;;;;;;8.33;5.97;;;;;;;-142.65;82.95;50174.75;5115612;28;20526;-70
2022/10/30 00:37:42;;;;;;;6.33;5.93;;;;;;;;;;5114963;28;20185;-70
2022/10/30 00:40:13;;;;;;;12.03;5.63;;;;;;;;;;5115236;28;20181;-70
2022/10/30 00:42:40;;;;;;;8.80;6.20;;;;;;;-142.65;83.70;50168.78;5114780;28;20220;-70
2022/10/30 00:45:09;;;;;;;15.63;6.27;;;;;;;;;;5114810;28;20651;-70
2022/10/30 00:47:40;;;;;;;9.07;5.87;;;;;;;-142.65;83.78;50170.78;5096493;28;20193;-70
2022/10/30 00:50:09;;;;;;;5.93;5.67;;;;;;;-142.65;83.92;50172.78;5115023;28;20180;-70
2022/10/30 00:52:41;;;;;;;12.23;6.93;;;;;;;-142.65;83.82;50172.78;5096389;28;20291;-70
2022/10/30 00:55:12;;;;;;;7.07;6.43;;;;;;;-142.65;84.05;50174.75;5097201;28;20189;-70
2022/10/30 00:57:39;;;;;;;16.57;7.00;;;;;;;;;;5114895;28;20180;-70
2022/10/30 01:00:09;;;;;;;7.70;7.00;;;;;;;-142.65;84.35;50176.75;5096534;28;20200;-69
2022/10/30 01:02:37;;;;;;;14.13;6.87;;;;;;;-142.65;84.49;50170.78;5114641;28;20202;-70
2022/10/30 01:05:05;;;;;;;8.27;6.97;;;;;;;-142.65;84.75;50168.78;5114433;28;20193;-70
2022/10/30 01:07:31;;;;;;;9.57;7.07;;;;;;;;;;5096081;28;20193;-70
2022/10/30 01:09:58;;;;;;;9.53;6.33;;;;;;;-142.65;84.74;50170.78;5114633;28;20726;-70
2022/10/30 01:12:24;;;;;;;6.53;6.03;;;;;;;-142.65;84.81;50172.78;5096010;28;20292;-70
2022/10/30 01:14:56;;;;;;;7.23;6.60;;;;;;;-142.65;84.89;50170.78;5095931;28;20242;-70
2022/10/30 01:17:24;;;;;;;6.10;5.53;;;;;;;-142.65;85.11;50170.78;5096874;28;20230;-69
2022/10/30 01:20:32;;;;;;;6.77;6.20;;;;;;;-142.65;85.13;50174.75;5096349;28;20708;-69
2022/10/30 01:23:20;;;;;;;11.30;6.43;;;;;;;-142.65;85.01;50170.78;5095778;28;20229;-70
2022/10/30 01:26:07;;;;;;;10.63;6.70;;;;;;;-142.65;84.81;50172.78;5095928;28;20238;-70
2022/10/30 01:28:57;;;;;;;9.30;6.67;;;;;;;-142.65;85.12;50178.75;5095821;28;20213;-69
2022/10/30 01:31:48;;;;;;;10.17;7.33;;;;;;;-142.65;85.25;50180.75;5114390;28;20205;-70
2022/10/30 01:34:40;;;;;;;6.67;6.10;;;;;;;;;;5095769;28;20184;-70
2022/10/30 01:37:24;;;;;;;8.67;6.57;;;;;;;-142.65;85.46;50170.78;5092613;28;20204;-70
2022/10/30 01:39:50;;;;;;;12.37;6.10;;;;;;;-142.65;85.63;50164.81;5095731;28;20230;-70
2022/10/30 01:42:42;;;;;;;13.17;6.57;;;;;;;-142.65;85.60;50174.75;5095580;28;20209;-70
2022/10/30 01:45:32;;;;;;;7.20;6.43;;;;;;;-142.65;85.66;50172.78;5095665;28;20189;-70
2022/10/30 01:48:20;;;;;;;7.40;6.70;;;;;;;-142.65;85.86;50182.72;5065308;28;20207;-70
2022/10/30 01:51:19;;;;;;;18.37;7.27;;;;;;;-142.65;85.86;50178.75;5096310;28;20205;-70
2022/10/30 01:53:59;;;;;;;11.03;5.97;;;;;;;-142.65;86.15;50170.78;5087585;28;20189;-70
2022/10/30 01:56:42;;;;;;;7.13;6.53;;;;;;;-142.65;86.20;50170.78;5096393;28;20189;-70
2022/10/30 01:59:22;;;;;;;17.23;7.07;;;;;;;-142.65;86.33;50180.75;5095767;28;20220;-69
2022/10/30 02:01:48;;;;;;;8.13;6.83;;;;;;;-142.65;86.40;50176.75;5095556;28;20686;-70
2022/10/30 02:04:15;;;;;;;8.07;6.10;;;;;;;-142.65;86.50;50172.78;5113866;28;20250;-69
2022/10/30 02:06:42;;;;;;;7.13;6.63;;;;;;;-142.65;86.36;50170.78;5095370;28;20240;-69
2022/10/30 02:09:09;;;;;;;11.77;6.87;;;;;;;-142.65;86.43;50170.78;5095428;28;20216;-69
2022/10/30 02:11:45;;;;;;;15.03;8.00;;;;;;;-142.65;86.60;50172.78;5095393;28;20219;-70
2022/10/30 02:14:17;;;;;;;11.17;7.40;;;;;;;-142.65;86.79;50174.75;5095604;28;20197;-69
2022/10/30 02:16:47;;;;;;;15.07;7.33;;;;;;;-142.65;87.20;50170.78;5095302;28;20181;-69
2022/10/30 02:19:17;;;;;;;7.40;6.87;;;;;;;-142.65;87.29;50170.78;5095283;28;20220;-69
2022/10/30 02:21:43;;;;;;;7.90;6.70;;;;;;;-142.65;86.80;50170.78;5095380;28;20209;-69
2022/10/30 02:24:09;;;;;;;8.17;7.33;;;;;;;;;;5095088;28;20690;-69
2022/10/30 02:26:37;;;;;;;12.50;8.40;;;;;;;;;;5095247;28;20189;-69
2022/10/30 02:29:03;;;;;;;8.13;7.53;;;;;;;-142.65;87.91;50172.78;5095181;28;20280;-69
2022/10/30 02:31:29;;;;;;;8.93;7.27;;;;;;;-142.65;88.04;50170.78;5113878;28;20220;-70
2022/10/30 02:33:56;;;;;;;14.13;7.10;;;;;;;-142.65;87.91;50174.75;5098959;28;20287;-69
2022/10/30 02:36:22;;;;;;;8.30;7.63;;;;;;;-142.65;88.14;50174.75;5099041;28;20189;-69
2022/10/30 02:38:53;;;;;;;9.37;7.63;;;;;;;-142.65;88.40;50182.72;5099053;28;20276;-69
2022/10/30 02:41:22;;;;;;;8.83;7.67;;;;;;;-142.65;88.43;50178.75;5099307;28;20209;-69
2022/10/30 02:43:50;;;;;;;8.63;7.83;;;;;;;-142.65;88.45;50176.75;5117140;28;20201;-69
2022/10/30 02:46:16;;;;;;;7.80;7.10;;;;;;;-142.65;88.49;50174.75;5098898;28;20193;-69
2022/10/30 02:48:43;;;;;;;7.73;7.07;;;;;;;-142.65;88.49;50180.75;5117673;28;20199;-69
2022/10/30 02:51:09;;;;;;;8.10;7.37;;;;;;;-142.65;88.55;50170.78;5117232;28;20217;-70
2022/10/30 02:53:37;;;;;;;7.47;6.60;;;;;;;-142.65;88.68;50170.78;5099001;28;20708;-70
2022/10/30 02:56:06;;;;;;;11.47;6.90;;;;;;;-142.65;88.71;50178.75;5098694;28;20192;-70
2022/10/30 02:58:32;;;;;;;11.40;8.03;;;;;;;-142.65;88.74;50172.78;5099444;28;20193;-70
2022/10/30 03:01:05;;;;;;;7.23;6.80;;;;;;;-142.65;88.58;50178.75;5098521;28;20270;-70
2022/10/30 03:03:32;;;;;;;7.83;7.10;;;;;;;-142.65;88.47;50178.75;5098500;28;20205;-70
2022/10/30 03:06:00;;;;;;;11.93;6.23;;;;;;;-142.65;88.39;50176.75;5098516;28;20305;-70
2022/10/30 03:08:27;;;;;;;13.23;6.83;;;;;;;-142.65;88.55;50176.75;5116761;28;20181;-70
2022/10/30 03:10:59;;;;;;;10.70;6.60;;;;;;;-142.65;88.64;50182.72;5098314;28;20193;-70
2022/10/30 03:13:27;;;;;;;8.47;7.60;;;;;;;-142.65;88.57;50170.78;5098320;28;20207;-69
2022/10/30 03:15:59;;;;;;;11.27;7.33;;;;;;;-142.65;88.67;50164.81;5098575;28;20539;-69
2022/10/30 03:18:25;;;;;;;8.00;7.33;;;;;;;-142.65;88.78;50174.75;5098605;28;20185;-69
2022/10/30 03:21:00;;;;;;;17.63;7.87;;;;;;;-142.65;89.15;50170.78;5098170;28;20287;-70
2022/10/30 03:23:27;;;;;;;9.00;8.13;;;;;;;-142.65;89.09;50184.72;5116696;28;20651;-69
2022/10/30 03:25:55;;;;;;;7.23;6.87;;;;;;;-142.65;89.18;50178.75;5098140;28;20199;-69
2022/10/30 03:28:26;;;;;;;7.00;6.50;;;;;;;-142.65;89.34;50178.75;5116919;28;20543;-69
2022/10/30 03:31:05;;;;;;;8.43;7.63;;;;;;;-142.65;89.10;50174.75;5098278;28;20726;-70
2022/10/30 03:33:33;;;;;;;8.80;7.93;;;;;;;-142.65;89.18;50176.75;5099089;28;20169;-70
2022/10/30 03:36:01;;;;;;;17.97;9.27;;;;;;;-142.65;89.17;50172.78;5097894;28;20189;-69
2022/10/30 03:38:28;;;;;;;10.30;9.30;;;;;;;-142.65;89.27;50180.75;5097972;28;20203;-69
2022/10/30 03:40:54;;;;;;;9.63;8.00;;;;;;;;;;5097775;28;20189;-70
2022/10/30 03:43:21;;;;;;;9.00;8.30;;;;;;;-142.65;89.21;50176.75;5115837;28;20205;-70
2022/10/30 03:45:50;;;;;;;8.03;7.53;;;;;;;-142.65;89.28;50174.75;5116037;28;20178;-70
2022/10/30 03:48:18;;;;;;;9.50;8.30;;;;;;;-142.65;89.34;50172.78;5097717;28;20181;-69
2022/10/30 03:50:45;;;;;;;9.20;8.50;;;;;;;-142.65;89.39;50180.75;5097938;28;20196;-70
2022/10/30 03:53:12;;;;;;;9.40;7.67;;;;;;;-142.65;89.46;50178.75;5097682;28;20192;-69
2022/10/30 03:55:39;;;;;;;20.27;8.30;;;;;;;-142.65;89.44;50174.75;5097579;28;20299;-69
2022/10/30 03:58:06;;;;;;;18.10;8.97;;;;;;;-142.65;89.62;50170.78;5097524;28;20221;-69
2022/10/30 04:00:34;;;;;;;8.43;7.67;;;;;;;-142.65;89.76;50184.72;5097756;28;20185;-69
2022/10/30 04:03:06;;;;;;;13.27;9.27;;;;;;;-142.65;89.96;50172.78;5097340;28;20255;-69
2022/10/30 04:05:32;;;;;;;13.47;9.63;;;;;;;;;;5097445;28;20222;-69
2022/10/30 04:08:04;;;;;;;10.80;8.17;;;;;;;-142.65;90.41;50174.75;5097340;28;20189;-69
2022/10/30 04:10:34;;;;;;;14.20;8.00;;;;;;;-142.65;90.26;50172.78;5098074;28;20239;-69
2022/10/30 04:13:05;;;;;;;8.57;7.57;;;;;;;-142.65;90.34;50176.75;5097860;28;20189;-69
2022/10/30 04:15:35;;;;;;;7.90;7.20;;;;;;;-142.65;90.41;50174.75;5097520;28;20192;-69
2022/10/30 04:18:02;;;;;;;10.53;8.23;;;;;;;-142.65;90.50;50174.75;5097142;28;20197;-69
2022/10/30 04:20:29;;;;;;;13.07;8.70;;;;;;;-142.65;90.48;50182.72;5097320;28;20244;-69
2022/10/30 04:22:57;;;;;;;13.63;8.37;;;;;;;;;;5096911;28;20209;-69
2022/10/30 04:25:24;;;;;;;16.03;8.40;;;;;;;-142.65;90.17;50182.72;5097001;28;20191;-69
2022/10/30 04:27:53;;;;;;;7.23;6.83;;;;;;;-142.65;90.36;50184.72;5096887;28;20189;-69
2022/10/30 04:30:23;;;;;;;11.00;7.57;;;;;;;-142.65;90.44;50172.78;5115071;28;20287;-69
2022/10/30 04:32:54;;;;;;;9.53;7.50;;;;;;;-142.65;90.47;50174.75;5096727;28;20205;-70
2022/10/30 04:35:24;;;;;;;23.43;8.90;;;;;;;-142.65;90.76;50182.72;5097011;28;20726;-69
2022/10/30 04:37:55;;;;;;;21.80;8.83;;;;;;;-142.65;90.75;50172.78;5096655;28;20196;-69
2022/10/30 04:40:23;;;;;;;9.73;7.23;;;;;;;-142.65;90.82;50182.72;5114987;28;20177;-69
2022/10/30 04:42:54;;;;;;;10.30;7.53;;;;;;;-142.65;90.83;50176.75;5097446;28;20232;-70
2022/10/30 04:45:22;;;;;;;7.67;7.37;;;;;;;-142.65;90.96;50174.75;5114815;28;20215;-69
2022/10/30 04:47:49;;;;;;;8.67;7.93;;;;;;;-142.65;91.02;50170.78;5096579;28;20225;-69
2022/10/30 04:50:16;;;;;;;20.20;8.70;;;;;;;-142.65;90.76;50182.72;5096507;28;20256;-69
2022/10/30 04:52:42;;;;;;;9.70;8.20;;;;;;;-142.65;91.03;50182.72;5096253;28;20215;-69
2022/10/30 04:55:10;;;;;;;8.53;7.83;;;;;;;-142.65;90.70;50174.75;5095952;28;20597;-69
2022/10/30 04:57:37;;;;;;;7.37;7.00;;;;;;;-142.65;90.80;50178.75;5097484;28;20625;-69
2022/10/30 05:00:06;;;;;;;7.13;6.83;;;;;;;-142.65;90.95;50182.72;5096898;28;20190;-69
2022/10/30 05:02:35;;;;;;;7.60;6.80;;;;;;;-142.65;91.16;50176.75;5096171;28;20262;-69
2022/10/30 05:05:03;;;;;;;13.73;7.97;;;;;;;-142.65;91.38;50182.72;5096094;28;20254;-70
2022/10/30 05:07:29;;;;;;;8.30;7.60;;;;;;;-142.65;91.53;50182.72;5114375;28;20189;-70
2022/10/30 05:09:56;;;;;;;8.77;7.90;;;;;;;-142.65;91.63;50180.75;5114379;28;20192;-70
2022/10/30 05:12:24;;;;;;;15.40;7.53;;;;;;;-142.65;91.82;50178.75;5095944;28;20217;-69
2022/10/30 05:14:52;;;;;;;10.97;7.90;;;;;;;-142.65;92.00;50168.78;5096035;28;20613;-69
2022/10/30 05:17:19;;;;;;;14.17;8.03;;;;;;;-142.65;92.07;50174.75;5095936;28;20250;-69
2022/10/30 05:19:49;;;;;;;9.30;7.50;;;;;;;-142.65;92.22;50174.75;5095851;28;20262;-69
2022/10/30 05:22:15;;;;;;;8.13;7.47;;;;;;;-142.65;92.29;50182.72;5095849;28;20236;-69
2022/10/30 05:24:42;;;;;;;11.03;8.67;;;;;;;-142.65;92.13;50180.75;5095779;28;20685;-69
2022/10/30 05:27:08;;;;;;;7.20;6.60;;;;;;;-142.65;92.18;50170.78;5114477;28;20574;-70
2022/10/30 05:29:34;;;;;;;14.43;8.63;;;;;;;-142.65;92.19;50180.75;5096113;28;20199;-69
2022/10/30 05:32:01;;;;;;;7.00;6.43;;;;;;;-142.65;92.48;50172.78;5114265;28;20301;-69
2022/10/30 05:34:37;;;;;;;12.00;7.43;;;;;;;-142.65;92.41;50178.75;5096416;28;20538;-69
2022/10/30 05:37:03;;;;;;;8.03;7.60;;;;;;;-142.65;92.48;50174.75;5096088;28;20222;-69
2022/10/30 05:39:30;;;;;;;8.03;7.37;;;;;;;-142.65;92.55;50172.78;5095775;28;20646;-69
2022/10/30 05:41:57;;;;;;;9.43;7.77;;;;;;;-142.65;92.46;50178.75;5095827;28;20209;-69
2022/10/30 05:44:35;;;;;;;8.97;8.20;;;;;;;-142.65;92.54;50170.78;5096437;28;20205;-69
2022/10/30 05:47:21;;;;;;;11.07;7.67;;;;;;;-142.65;92.57;50182.72;5095879;28;20177;-69
2022/10/30 05:49:51;;;;;;;9.33;7.13;;;;;;;-142.65;92.69;50170.78;5095590;28;20189;-69
2022/10/30 05:52:20;;;;;;;8.90;7.93;;;;;;;-142.65;92.80;50170.78;5095449;28;20236;-70
2022/10/30 05:54:48;;;;;;;8.23;7.60;;;;;;;-142.65;92.79;50170.78;5095531;28;20204;-70
2022/10/30 05:57:29;;;;;;;7.57;6.83;;;;;;;-142.65;92.98;50170.78;5095794;28;20197;-69
2022/10/30 05:59:55;;;;;;;10.00;8.03;;;;;;;-142.65;93.05;50182.72;5095430;28;20221;-69
2022/10/30 06:02:21;;;;;;;14.97;8.83;;;;;;;-142.65;93.22;50176.75;5095414;28;20215;-70
2022/10/30 06:04:49;;;;;;;8.40;7.27;;;;;;;-142.65;93.32;50180.75;5095376;28;20219;-70
2022/10/30 06:07:16;;;;;;;7.87;7.23;;;;;;;-142.65;93.42;50174.75;5096289;28;20195;-69
2022/10/30 06:09:43;;;;;;;14.03;7.73;;;;;;;-142.65;93.41;50178.75;5099649;28;20189;-69
2022/10/30 06:12:24;;;;;;;10.90;7.83;;;;;;;-142.65;93.38;50164.81;5099582;28;20216;-69
2022/10/30 06:15:10;;;;;;;7.77;7.17;;;;;;;-142.65;93.45;50172.78;5110150;28;20203;-69
2022/10/30 06:17:37;;;;;;;9.97;7.80;;;;;;;-142.65;93.63;50180.75;5099696;28;20209;-69
2022/10/30 06:20:13;;;;;;;12.57;7.93;;;;;;;-142.65;93.10;50170.78;5099569;28;20184;-69
2022/10/30 06:23:01;;;;;;;16.13;8.33;;;;;;;-142.65;93.28;50172.78;5099370;28;20213;-70
2022/10/30 06:25:39;;;;;;;12.93;7.33;;;;;;;-142.65;93.70;50170.78;5100095;28;20572;-70
2022/10/30 06:28:20;;;;;;;12.67;7.97;;;;;;;-142.65;93.83;50170.78;5117980;28;20223;-70
2022/10/30 06:30:46;;;;;;;8.70;8.20;;;;;;;-142.65;94.05;50182.72;5099138;28;20764;-70
2022/10/30 06:33:13;;;;;;;8.67;8.07;;;;;;;-142.65;94.14;50172.78;5099183;28;20366;-70
2022/10/30 06:35:47;;;;;;;9.87;8.13;;;;;;;-142.65;94.10;50170.78;5099932;28;20185;-70
2022/10/30 06:38:15;;;;;;;9.07;8.13;;;;;;;-142.65;93.95;50170.78;5099062;28;20197;-70
2022/10/30 06:40:42;;;;;;;18.00;7.60;;;;;;;-142.65;94.52;50178.75;5099249;28;20191;-70
2022/10/30 06:43:34;;;;;;;19.37;7.50;;;;;;;-142.65;94.37;50172.78;5114918;28;20686;-70
2022/10/30 06:46:05;;;;;;;12.40;8.07;;;;;;;-142.65;94.40;50170.78;5098964;28;20181;-70
2022/10/30 06:48:34;;;;;;;8.57;7.33;;;;;;;-142.65;94.43;50182.72;5098895;28;20200;-70
2022/10/30 06:51:01;;;;;;;14.27;7.43;;;;;;;-142.65;94.42;50176.75;5117011;28;20213;-70
2022/10/30 06:53:31;;;;;;;9.60;8.23;;;;;;;-142.65;94.42;50174.75;5098789;28;20734;-70
2022/10/30 06:56:32;;;;;;;8.47;7.60;;;;;;;-142.65;94.13;50180.75;5116813;28;20198;-70
2022/10/30 06:59:06;;;;;;;8.27;7.60;;;;;;;;;;5098688;28;20185;-69
2022/10/30 07:01:35;;;;;;;12.67;8.83;;;;;;;-142.65;94.12;50170.78;5098586;28;20210;-70
2022/10/30 07:04:21;;;;;;;15.50;8.23;;;;;;;-142.65;94.38;50182.72;5116820;28;20219;-70
2022/10/30 07:06:48;;;;;;;9.37;8.13;;;;;;;-142.65;94.39;50174.75;5098485;28;20199;-70
2022/10/30 07:09:16;;;;;;;9.67;8.30;;;;;;;-142.65;94.24;50180.75;5098438;28;20574;-70
2022/10/30 07:11:44;;;;;;;8.23;7.50;;;;;;;-142.65;94.45;50178.75;5098380;28;20560;-70
2022/10/30 07:14:17;;;;;;;8.50;7.70;;;;;;;-142.65;94.49;50182.72;5098280;28;20195;-70
2022/10/30 07:16:57;;;;;;;9.23;8.30;;;;;;;-142.65;94.62;50176.75;5098628;28;20195;-70
2022/10/30 07:19:25;;;;;;;9.17;8.43;;;;;;;-142.65;94.64;50170.78;5098131;28;20279;-70
2022/10/30 07:21:53;;;;;;;18.23;9.00;;;;;;;-142.65;94.45;50180.75;5098192;28;20258;-70
2022/10/30 07:24:20;;;;;;;8.77;7.87;;;;;;;-142.65;94.48;50178.75;5098135;28;20337;-70
2022/10/30 07:27:13;;;;;;;8.53;7.73;;;;;;;-142.65;94.54;50180.75;5099040;28;20518;-70
2022/10/30 07:29:44;;;;;;;15.53;8.93;;;;;;;-142.65;94.50;50180.75;5098179;28;20190;-70
2022/10/30 07:32:25;;;;;;;11.20;8.83;;;;;;;-142.65;94.62;50172.78;5098039;28;20579;-70
2022/10/30 07:35:11;;;;;;;12.47;9.17;;;;;;;-142.65;94.55;50172.78;5098563;28;20193;-70
2022/10/30 07:38:10;;;;;;;20.77;9.03;;;;;;;-142.65;94.65;50170.78;5116480;28;20647;-70
2022/10/30 07:40:42;;;;;;;9.63;7.73;;;;;;;;;;5098011;28;20674;-70
2022/10/30 07:43:23;;;;;;;11.70;8.50;;;;;;;-142.65;94.81;50174.75;5097902;28;20230;-70
2022/10/30 07:46:08;;;;;;;13.57;8.67;;;;;;;-142.65;94.79;50170.78;5116682;28;20547;-70
2022/10/30 07:48:55;;;;;;;8.70;8.07;;;;;;;-142.65;94.82;50174.75;5115879;28;20200;-70
2022/10/30 07:51:39;;;;;;;9.20;8.30;;;;;;;;;;5097605;28;20221;-70
2022/10/30 07:54:06;;;;;;;9.60;8.57;;;;;;;-142.65;94.95;50176.75;5097629;28;20200;-70
2022/10/30 07:56:33;;;;;;;9.63;8.73;;;;;;;-142.65;95.01;50172.78;5097835;28;20192;-70
2022/10/30 07:59:26;;;;;;;11.30;9.10;;;;;;;-142.65;95.17;50174.75;5113513;28;20281;-70
2022/10/30 08:02:10;;;;;;;15.57;9.00;;;;;;;-142.65;95.14;50172.78;5116209;28;20611;-70
2022/10/30 08:04:59;;;;;;;16.87;9.60;;;;;;;-142.65;95.28;50172.78;5098147;28;20213;-70
2022/10/30 08:07:45;;;;;;;14.43;9.47;;;;;;;-142.65;95.52;50174.75;5115958;28;20200;-70
2022/10/30 08:10:13;;;;;;;16.87;10.07;;;;;;;-142.65;95.53;50174.75;5098093;28;20207;-70
2022/10/30 08:12:42;;;;;;;15.10;10.17;;;;;;;-142.65;95.57;50170.78;5097130;28;20661;-70
2022/10/30 08:15:10;;;;;;;10.27;9.47;;;;;;;-142.65;95.46;50178.75;5097181;28;20276;-70
2022/10/30 08:17:44;;;;;;;16.30;11.57;;;;;;;-142.65;94.96;50168.78;5097153;28;20207;-70
2022/10/30 08:20:12;;;;;;;23.67;10.67;;;;;;;-142.65;94.54;50168.78;5115645;28;20290;-70
2022/10/30 08:22:47;;;;;;;14.63;10.47;;;;;;;-142.65;93.77;50170.78;5097767;28;20217;-69
2022/10/30 08:25:15;;;;;;;20.17;9.63;;;;;;;-142.65;92.78;50172.78;5097730;28;20208;-69
2022/10/30 08:27:51;;;;;;;11.27;9.77;;;;;;;-142.65;92.18;50168.78;5115975;28;20181;-70
2022/10/30 08:30:18;;;;;;;10.03;9.10;;;;;;;-142.65;91.65;50174.75;5096188;28;20627;-70
2022/10/30 08:32:44;;;;;;;16.47;9.40;;;;;;;;;;5096871;28;20240;-70
2022/10/30 08:35:29;;;;;;;12.43;8.97;;;;;;;-142.65;89.28;50170.78;5115642;28;20181;-70
2022/10/30 08:37:58;;;;;;;11.70;9.57;;;;;;;;;;5097337;28;20188;-70
2022/10/30 08:40:26;;;;;;;13.40;8.73;;;;;;;-142.65;87.35;50170.78;5096933;28;20177;-70
2022/10/30 08:42:58;;;;;;;16.40;8.70;;;;;;;-142.65;85.88;50170.78;5096651;28;20208;-70
2022/10/30 08:45:25;;;;;;;15.30;9.57;;;;;;;;;;5096726;28;20201;-70
2022/10/30 08:48:10;;;;;;;14.40;8.80;;;;;;;-142.65;84.46;50164.81;5096932;28;20717;-70
2022/10/30 08:50:40;;;;;;;18.23;9.57;;;;;;;-142.65;84.16;50170.78;5097116;28;20201;-70
2022/10/30 08:53:10;;;;;;;10.20;8.73;;;;;;;-142.65;83.10;50170.78;5096314;28;20193;-70
2022/10/30 08:55:37;;;;;;;19.97;8.10;;;;;;;-142.65;82.88;50170.78;5096512;28;20181;-70
2022/10/30 08:58:08;;;;;;;16.77;7.83;;;;;;;;;;5097492;28;20226;-70
2022/10/30 09:00:35;;;;;;;11.87;8.03;;;;;;;;;;5097225;28;20561;-70
2022/10/30 09:03:10;;;;;;;20.07;7.63;;;;;;;-142.65;82.13;50170.78;5114812;28;20172;-70
2022/10/30 09:06:00;;;;;;;14.53;7.40;;;;;;;;;;5114295;28;20209;-70
2022/10/30 09:08:45;;;;;;;13.93;7.93;;;;;;;-142.65;76.85;50170.78;5115056;28;20180;-70
2022/10/30 09:11:27;;;;;;;11.10;7.20;;;;;;;;;;5096074;28;20294;-70
2022/10/30 09:13:55;;;;;;;21.17;7.27;;;;;;;-142.65;75.46;50162.81;5096511;28;20257;-70
2022/10/30 09:16:21;;;;;;;9.73;8.37;;;;;;;-142.65;74.27;50162.81;5114590;28;20204;-70
2022/10/30 09:18:48;;;;;;;12.80;7.30;;;;;;;;;;5095991;28;20188;-70
2022/10/30 09:21:15;;;;;;;18.33;5.90;;;;;;;-142.65;72.32;50170.78;5095950;28;20718;-70
2022/10/30 09:23:45;;;;;;;6.33;5.80;;;;;;;;;;5096574;28;20197;-70
2022/10/30 09:26:29;;;;;;;9.73;5.33;;;;;;;-142.65;71.67;50172.78;5114648;28;20274;-70
2022/10/30 09:29:14;;;;;;;7.93;5.73;;;;;;;-142.65;70.37;50164.81;5114934;28;20223;-70
2022/10/30 09:31:55;;;;;;;12.97;5.93;;;;;;;;;;5114309;28;20209;-70
2022/10/30 09:34:24;;;;;;;7.90;6.23;;;;;;;;;;5095836;28;20197;-70
2022/10/30 09:36:57;;;;;;;12.00;6.30;;;;;;;-142.65;68.50;50162.81;5096805;28;20173;-70
2022/10/30 09:39:24;;;;;;;8.50;5.77;;;;;;;;;;5096205;28;20280;-70
2022/10/30 09:41:57;;;;;;;6.93;6.23;;;;;;;;;;5095610;28;20217;-71
2022/10/30 09:44:38;;;;;;;7.47;7.00;;;;;;;;;;5095719;28;20185;-71
2022/10/30 09:47:19;;;;;;;8.23;7.23;;;;;;;;;;5096479;28;20181;-70
2022/10/30 09:49:53;;;;;;;15.53;6.70;;;;;;;;;;5095580;28;20266;-70
2022/10/30 09:52:27;;;;;;;7.97;6.20;;;;;;;-142.65;69.11;50164.81;5096294;28;20213;-70
2022/10/30 09:55:28;;;;;;;7.50;5.97;;;;;;;-142.65;68.03;50170.78;5095721;28;20191;-70
2022/10/30 09:58:17;;;;;;;5.87;5.37;;;;;;;-142.65;66.43;50168.78;5095496;28;20234;-70
2022/10/30 10:00:50;;;;;;;9.33;5.77;;;;;;;;;;5096029;28;20181;-70
2022/10/30 10:03:53;;;;;;;14.77;5.10;;;;;;;-142.65;65.99;50172.78;5095479;28;20256;-69
2022/10/30 10:06:40;;;;;;;8.50;5.10;;;;;;;;;;5113894;28;20299;-69
2022/10/30 10:09:29;;;;;;;19.70;7.77;;;;;;;-142.65;63.42;50164.81;5102721;28;20197;-69
2022/10/30 10:12:25;;;;;;;9.33;6.90;;;;;;;;;;5095401;28;20213;-70
2022/10/30 10:14:52;;;;;;;10.07;6.60;;;;;;;;;;5113444;28;20191;-70
2022/10/30 10:17:24;;;;;;;11.73;5.93;;;;;;;;;;5114052;28;20712;-70
2022/10/30 10:19:58;;;;;;;17.70;5.93;;;;;;;-142.65;62.33;50162.81;5113850;28;20169;-70
2022/10/30 10:22:33;;;;;;;7.93;5.37;;;;;;;-142.65;61.96;50164.81;5113653;28;20573;-71
2022/10/30 10:25:02;;;;;;;12.33;7.07;;;;;;;-142.65;62.84;50174.75;5113993;28;20204;-70
2022/10/30 10:27:43;;;;;;;12.37;6.63;;;;;;;;;;5113383;28;20673;-70
2022/10/30 10:30:14;;;;;;;12.90;5.40;;;;;;;;;;5113716;28;20173;-71
2022/10/30 10:32:49;;;;;;;9.20;5.33;;;;;;;-142.65;60.79;50162.81;5113433;28;20578;-71
2022/10/30 10:35:40;;;;;;;5.33;4.93;;;;;;;-142.65;61.29;50162.81;5113414;28;20166;-71
2022/10/30 10:38:16;;;;;;;11.43;5.47;;;;;;;-142.65;59.62;50162.81;5113355;28;20185;-70
2022/10/30 10:40:48;;;;;;;5.27;4.80;;;;;;;;;;5113359;28;20169;-70
2022/10/30 10:43:34;;;;;;;14.47;5.50;;;;;;;-142.65;61.03;50162.81;5113549;28;20192;-70
2022/10/30 10:46:20;;;;;;;10.30;4.73;;;;;;;;;;5113615;28;20193;-70
2022/10/30 10:49:04;;;;;;;19.60;6.07;;;;;;;-142.65;60.51;50168.78;5113179;28;20172;-70
2022/10/30 10:51:38;;;;;;;15.07;5.97;;;;;;;;;;5113694;28;20209;-70
2022/10/30 10:54:04;;;;;;;26.47;5.97;;;;;;;;;;5115187;28;20192;-70
2022/10/30 10:56:35;;;;;;;12.03;6.50;;;;;;;-142.65;60.06;50170.78;5117014;28;20264;-70
2022/10/30 10:59:11;;;;;;;6.83;4.87;;;;;;;;;;5117599;28;20174;-70
2022/10/30 11:01:39;;;;;;;14.90;5.50;;;;;;;-142.65;58.35;50164.81;5116939;28;20211;-70
2022/10/30 11:04:17;;;;;;;9.00;5.43;;;;;;;-142.65;58.89;50174.75;5117121;28;20189;-70
2022/10/30 11:06:49;;;;;;;20.47;5.37;;;;;;;-142.65;57.28;50168.78;5117086;28;20650;-70
2022/10/30 11:09:20;;;;;;;6.83;5.57;;;;;;;;;;5116844;28;20205;-70
2022/10/30 11:11:52;;;;;;;9.03;6.33;;;;;;;-142.65;57.76;50168.78;5116987;28;20292;-71
2022/10/30 11:14:28;;;;;;;10.47;5.97;;;;;;;-142.65;57.69;50162.81;5116701;28;20667;-71
2022/10/30 11:17:14;;;;;;;5.83;5.33;;;;;;;;;;5116915;28;20532;-70
2022/10/30 11:19:40;;;;;;;5.00;4.60;;;;;;;-142.65;57.39;50164.81;5116596;28;20177;-70
2022/10/30 11:22:39;;;;;;;9.27;5.13;;;;;;;-142.65;58.81;50162.81;5116411;28;20205;-70
2022/10/30 11:25:25;;;;;;;10.67;5.80;;;;;;;-142.65;58.36;50172.78;5100708;28;20292;-70
2022/10/30 11:27:59;;;;;;;12.23;6.80;;;;;;;-142.65;56.79;50162.81;5116291;28;20663;-70
2022/10/30 11:30:27;;;;;;;6.57;4.70;;;;;;;;;;5116660;28;20607;-71
2022/10/30 11:32:58;;;;;;;7.63;5.70;;;;;;;-142.65;56.23;50170.78;5116230;28;20690;-70
2022/10/30 11:35:25;;;;;;;6.05;5.22;;;;;;;;;;5098470;28;20201;-70
2022/10/30 11:38:12;;;;;;;21.38;5.50;;;;;;;-142.65;58.45;50162.81;5116761;28;20185;-70
2022/10/30 11:40:46;;;;;;;4.97;4.60;;;;;;;-142.65;56.96;50162.81;5116700;28;20260;-70
2022/10/30 11:43:15;;;;;;;4.60;4.40;;;;;;;;;;5116058;28;20200;-71
2022/10/30 11:45:42;;;;;;;8.68;4.85;;;;;;;;;;5115957;28;20197;-70
2022/10/30 11:48:18;;;;;;;14.43;5.88;;;;;;;-142.65;57.16;50168.78;5116280;28;20189;-70
2022/10/30 11:50:47;;;;;;;10.88;4.68;;;;;;;;;;5116373;28;20265;-71
2022/10/30 11:53:39;;;;;;;10.05;4.70;;;;;;;-142.65;55.81;50164.81;5115968;28;20226;-70
2022/10/30 11:56:32;;;;;;;11.60;5.05;;;;;;;;;;5107172;28;20203;-70
2022/10/30 11:58:59;;;;;;;10.65;5.45;;;;;;;;;;5112042;28;20205;-70
2022/10/30 12:01:35;;;;;;;9.48;5.18;;;;;;;;;;5116218;28;20208;-70
2022/10/30 12:04:22;;;;;;;12.75;4.97;;;;;;;-142.65;54.13;50168.78;5115592;28;20256;-70
2022/10/30 12:07:07;;;;;;;8.43;4.28;;;;;;;;;;5115330;28;20197;-70
2022/10/30 12:09:40;;;;;;;10.75;5.20;;;;;;;;;;5115652;28;20183;-70
2022/10/30 12:12:11;;;;;;;11.73;5.03;;;;;;;;;;5115644;28;20213;-71
2022/10/30 12:14:38;;;;;;;9.45;4.22;;;;;;;;;;5115600;28;20197;-70